createdAt,value
2016-05-25T00:00:02.141Z,76.16
2016-05-25T00:01:02.097Z,76.35
2016-05-25T00:02:02.224Z,76.35
2016-05-25T00:03:02.149Z,76.54
2016-05-25T00:04:02.105Z,76.25
2016-05-25T00:05:02.045Z,76.06
2016-05-25T00:06:05.205Z,76.16
2016-05-25T00:07:01.957Z,75.87
2016-05-25T00:08:01.882Z,76.35
2016-05-25T00:09:01.853Z,76.06
2016-05-25T00:10:01.808Z,76.06
2016-05-25T00:11:01.749Z,75.78
2016-05-25T00:12:01.704Z,76.06
2016-05-25T00:13:04.645Z,76.06
2016-05-25T00:14:01.601Z,76.06
2016-05-25T00:15:04.540Z,75.87
2016-05-25T00:16:01.513Z,75.96
2016-05-25T00:17:01.843Z,75.96
2016-05-25T00:18:01.377Z,75.96
2016-05-25T00:19:01.176Z,75.96
2016-05-25T00:20:04.289Z,75.87
2016-05-25T00:21:01.245Z,76.16
2016-05-25T00:22:01.247Z,76.16
2016-05-25T00:23:01.328Z,75.96
2016-05-25T00:24:01.096Z,75.96
2016-05-25T00:25:01.037Z,76.16
2016-05-25T00:26:00.992Z,75.96
2016-05-25T00:27:00.948Z,76.44
2016-05-25T00:28:03.904Z,75.87
2016-05-25T00:29:03.845Z,75.68
2016-05-25T00:30:07.019Z,75.2
2016-05-25T00:31:00.944Z,75.78
2016-05-25T00:32:00.539Z,75.72
2016-05-25T00:33:06.636Z,75.49
2016-05-25T00:34:03.608Z,75.59
2016-05-25T00:35:03.547Z,75.68
2016-05-25T00:36:00.707Z,75.49
2016-05-25T00:37:00.443Z,75.59
2016-05-25T00:38:00.384Z,75.2
2016-05-25T00:39:00.356Z,75.3
2016-05-25T00:40:00.264Z,75.78
2016-05-25T00:41:00.221Z,75.59
2016-05-25T00:42:00.176Z,75.49
2016-05-25T00:43:03.132Z,75.49
2016-05-25T00:44:00.071Z,75.59
2016-05-25T00:45:00.715Z,75.11
2016-05-25T00:46:00.171Z,75.3
2016-05-25T00:47:03.455Z,75.4
2016-05-25T00:47:59.880Z,75.2
2016-05-25T00:49:02.663Z,75.3
2016-05-25T00:49:59.776Z,75.2
2016-05-25T00:50:59.918Z,75.59
2016-05-25T00:52:02.687Z,74.92
2016-05-25T00:52:59.612Z,74.73
2016-05-25T00:53:59.583Z,74.73
2016-05-25T00:54:59.524Z,74.82
2016-05-25T00:56:02.479Z,75.01
2016-05-25T00:57:02.434Z,75.01
2016-05-25T00:57:59.578Z,74.73
2016-05-25T00:58:59.312Z,74.63
2016-05-25T00:59:59.269Z,74.63
2016-05-25T01:00:59.209Z,74.73
2016-05-25T01:02:02.714Z,74.92
2016-05-25T01:02:59.120Z,74.73
2016-05-25T01:04:02.063Z,74.77
2016-05-25T01:05:02.222Z,74.86
2016-05-25T01:05:58.972Z,74.67
2016-05-25T01:07:01.930Z,74.67
2016-05-25T01:07:58.868Z,74.67
2016-05-25T01:08:58.808Z,74.67
2016-05-25T01:10:01.767Z,74.48
2016-05-25T01:10:58.908Z,74.77
2016-05-25T01:12:01.663Z,74.57
2016-05-25T01:13:01.665Z,74.19
2016-05-25T01:14:01.762Z,74.38
2016-05-25T01:15:01.515Z,74.19
2016-05-25T01:15:58.452Z,74.67
2016-05-25T01:17:01.426Z,74.67
2016-05-25T01:18:01.398Z,74.67
2016-05-25T01:19:01.307Z,74.67
2016-05-25T01:20:01.262Z,74.86
2016-05-25T01:21:01.046Z,74.67
2016-05-25T01:22:01.159Z,74.77
2016-05-25T01:23:01.129Z,74.86
2016-05-25T01:23:57.879Z,75.05
2016-05-25T01:24:58.070Z,74.86
2016-05-25T01:26:00.966Z,74.86
2016-05-25T01:26:58.106Z,74.86
2016-05-25T01:28:01.268Z,75.01
2016-05-25T01:28:57.800Z,74.67
2016-05-25T01:30:00.758Z,74.54
2016-05-25T01:30:57.695Z,74.92
2016-05-25T01:32:00.654Z,75.01
2016-05-25T01:33:00.625Z,74.82
2016-05-25T01:33:57.547Z,74.63
2016-05-25T01:34:57.691Z,74.86
2016-05-25T01:36:00.459Z,74.63
2016-05-25T01:37:03.417Z,74.96
2016-05-25T01:37:57.339Z,74.82
2016-05-25T01:38:57.357Z,75.01
2016-05-25T01:39:57.235Z,74.92
2016-05-25T01:40:57.192Z,74.92
2016-05-25T01:42:00.366Z,74.44
2016-05-25T01:42:57.088Z,75.4
2016-05-25T01:43:57.058Z,74.73
2016-05-25T01:44:56.999Z,75.01
2016-05-25T01:45:59.955Z,74.92
2016-05-25T01:46:56.910Z,74.73
2016-05-25T01:48:00.069Z,75.01
2016-05-25T01:48:56.791Z,74.96
2016-05-25T01:49:59.591Z,74.96
2016-05-25T01:50:56.687Z,74.48
2016-05-25T01:51:56.642Z,74.57
2016-05-25T01:52:56.427Z,74.96
2016-05-25T01:53:56.554Z,74.77
2016-05-25T01:54:56.495Z,74.86
2016-05-25T01:55:59.465Z,74.77
2016-05-25T01:56:56.406Z,75.11
2016-05-25T01:57:59.331Z,75.49
2016-05-25T01:58:56.286Z,74.54
2016-05-25T01:59:56.242Z,74.73
2016-05-25T02:00:56.386Z,74.92
2016-05-25T02:01:59.154Z,75.3
2016-05-25T02:02:59.095Z,75.49
2016-05-25T02:03:56.050Z,75.96
2016-05-25T02:04:59.006Z,75.4
2016-05-25T02:05:58.946Z,75.3
2016-05-25T02:06:56.074Z,75.49
2016-05-25T02:07:59.045Z,75.68
2016-05-25T02:08:58.813Z,75.49
2016-05-25T02:10:01.756Z,75.59
2016-05-25T02:10:58.756Z,75.59
2016-05-25T02:11:55.634Z,75.68
2016-05-25T02:12:55.794Z,75.96
2016-05-25T02:13:58.546Z,75.68
2016-05-25T02:14:58.502Z,75.4
2016-05-25T02:15:55.644Z,75.49
2016-05-25T02:16:55.663Z,75.3
2016-05-25T02:17:55.337Z,75.4
2016-05-25T02:18:55.293Z,75.78
2016-05-25T02:19:55.218Z,75.3
2016-05-25T02:20:55.018Z,75.49
2016-05-25T02:21:54.957Z,75.68
2016-05-25T02:22:55.054Z,75.24
2016-05-25T02:23:55.026Z,75.49
2016-05-25T02:24:54.982Z,75.87
2016-05-25T02:25:55.000Z,75.59
2016-05-25T02:26:57.878Z,75.59
2016-05-25T02:27:57.848Z,75.96
2016-05-25T02:28:54.789Z,75.4
2016-05-25T02:29:54.713Z,75.4
2016-05-25T02:30:57.669Z,75.15
2016-05-25T02:31:54.625Z,75.34
2016-05-25T02:32:55.065Z,75.24
2016-05-25T02:33:54.522Z,75.15
2016-05-25T02:34:57.493Z,75.53
2016-05-25T02:35:57.433Z,75.87
2016-05-25T02:36:54.608Z,75.49
2016-05-25T02:37:54.297Z,75.59
2016-05-25T02:38:54.269Z,75.49
2016-05-25T02:39:54.224Z,75.59
2016-05-25T02:40:54.259Z,75.59
2016-05-25T02:41:54.121Z,75.59
2016-05-25T02:42:57.077Z,75.49
2016-05-25T02:43:57.205Z,75.78
2016-05-25T02:45:01.410Z,75.49
2016-05-25T02:45:53.944Z,75.4
2016-05-25T02:46:53.900Z,75.59
2016-05-25T02:47:53.824Z,75.62
2016-05-25T02:48:53.765Z,76.01
2016-05-25T02:49:53.704Z,75.72
2016-05-25T02:50:53.676Z,75.34
2016-05-25T02:51:53.617Z,75.53
2016-05-25T02:52:53.775Z,75.34
2016-05-25T02:53:53.826Z,75.53
2016-05-25T02:54:56.468Z,75.43
2016-05-25T02:55:53.440Z,75.72
2016-05-25T02:56:56.365Z,75.87
2016-05-25T02:57:53.304Z,75.87
2016-05-25T02:58:56.260Z,76.06
2016-05-25T02:59:53.216Z,76.06
2016-05-25T03:00:56.172Z,75.87
2016-05-25T03:01:53.175Z,76.06
2016-05-25T03:02:56.100Z,76.06
2016-05-25T03:04:02.211Z,76.16
2016-05-25T03:04:55.948Z,75.96
2016-05-25T03:05:52.903Z,76.06
2016-05-25T03:06:56.064Z,76.06
2016-05-25T03:07:52.784Z,75.87
2016-05-25T03:08:52.756Z,75.87
2016-05-25T03:09:52.711Z,75.87
2016-05-25T03:10:52.652Z,76.06
2016-05-25T03:11:55.623Z,75.91
2016-05-25T03:12:58.408Z,76.1
2016-05-25T03:13:55.504Z,76.2
2016-05-25T03:14:52.460Z,75.72
2016-05-25T03:15:55.618Z,75.91
2016-05-25T03:16:52.371Z,75.43
2016-05-25T03:17:52.296Z,75.53
2016-05-25T03:18:55.299Z,75.91
2016-05-25T03:19:55.207Z,76.48
2016-05-25T03:20:52.554Z,76.1
2016-05-25T03:21:51.947Z,76.06
2016-05-25T03:22:52.247Z,75.87
2016-05-25T03:23:51.999Z,76.16
2016-05-25T03:24:51.799Z,75.96
2016-05-25T03:25:51.896Z,75.87
2016-05-25T03:26:52.040Z,76.29
2016-05-25T03:27:51.698Z,76.1
2016-05-25T03:28:51.591Z,76.1
2016-05-25T03:29:51.687Z,75.96
2016-05-25T03:30:51.643Z,75.78
2016-05-25T03:31:51.803Z,76.06
2016-05-25T03:32:51.758Z,76.25
2016-05-25T03:33:57.714Z,76.44
2016-05-25T03:34:51.436Z,76.16
2016-05-25T03:35:54.609Z,75.87
2016-05-25T03:36:54.362Z,76.16
2016-05-25T03:37:54.303Z,76.16
2016-05-25T03:38:54.258Z,76.64
2016-05-25T03:39:51.199Z,76.54
2016-05-25T03:40:51.139Z,76.54
2016-05-25T03:41:51.110Z,76.73
2016-05-25T03:43:25.366Z,76.35
2016-05-25T03:43:50.991Z,76.44
2016-05-25T03:44:50.790Z,75.91
2016-05-25T03:45:53.902Z,76.1
2016-05-25T03:46:50.843Z,76.2
2016-05-25T03:47:53.783Z,75.91
2016-05-25T03:48:51.145Z,76.1
2016-05-25T03:49:56.726Z,76.01
2016-05-25T03:50:50.650Z,76.01
2016-05-25T03:51:50.590Z,75.72
2016-05-25T03:52:50.546Z,75.15
2016-05-25T03:53:50.502Z,75.53
2016-05-25T03:54:50.426Z,75.43
2016-05-25T03:55:50.383Z,75.34
2016-05-25T03:56:50.323Z,75.53
2016-05-25T03:57:50.294Z,75.53
2016-05-25T03:58:50.235Z,75.53
2016-05-25T03:59:50.175Z,75.53
2016-05-25T04:00:50.427Z,75.53
2016-05-25T04:01:50.070Z,75.34
2016-05-25T04:02:50.027Z,75.53
2016-05-25T04:03:49.982Z,75.24
2016-05-25T04:04:49.923Z,75.24
2016-05-25T04:05:49.879Z,75.72
2016-05-25T04:06:50.037Z,75.24
2016-05-25T04:07:52.789Z,75.15
2016-05-25T04:08:49.731Z,75.43
2016-05-25T04:09:49.686Z,75.15
2016-05-25T04:10:52.642Z,75.24
2016-05-25T04:11:49.581Z,75.24
2016-05-25T04:12:49.366Z,75.15
2016-05-25T04:13:49.478Z,75.05
2016-05-25T04:14:49.434Z,75.05
2016-05-25T04:15:52.389Z,75.24
2016-05-25T04:16:55.189Z,75.05
2016-05-25T04:17:52.285Z,75.05
2016-05-25T04:18:49.225Z,75.34
2016-05-25T04:19:49.220Z,75.24
2016-05-25T04:20:49.169Z,75.05
2016-05-25T04:21:52.351Z,75.24
2016-05-25T04:22:55.144Z,75.2
2016-05-25T04:23:52.295Z,75.05
2016-05-25T04:24:52.134Z,75.24
2016-05-25T04:25:52.021Z,75.24
2016-05-25T04:26:51.985Z,75.43
2016-05-25T04:27:51.934Z,75.3
2016-05-25T04:28:52.085Z,75.4
2016-05-25T04:29:49.044Z,74.67
2016-05-25T04:30:48.644Z,74.48
2016-05-25T04:31:52.135Z,74.48
2016-05-25T04:32:51.718Z,74.96
2016-05-25T04:33:54.661Z,74.96
2016-05-25T04:34:48.603Z,74.86
2016-05-25T04:35:48.543Z,74.57
2016-05-25T04:36:51.517Z,74.86
2016-05-25T04:37:48.504Z,74.77
2016-05-25T04:38:51.416Z,74.77
2016-05-25T04:39:48.356Z,74.77
2016-05-25T04:40:51.358Z,74.96
2016-05-25T04:41:48.253Z,74.86
2016-05-25T04:42:48.224Z,74.67
2016-05-25T04:43:48.164Z,74.77
2016-05-25T04:44:48.137Z,74.57
2016-05-25T04:45:48.076Z,74.38
2016-05-25T04:46:48.048Z,74.38
2016-05-25T04:47:47.957Z,74.57
2016-05-25T04:48:47.897Z,74.01
2016-05-25T04:49:47.868Z,74.1
2016-05-25T04:50:50.825Z,74.1
2016-05-25T04:51:47.764Z,74.19
2016-05-25T04:52:47.720Z,74.19
2016-05-25T04:53:50.675Z,74.1
2016-05-25T04:54:47.617Z,74.38
2016-05-25T04:55:50.572Z,74.29
2016-05-25T04:56:47.715Z,74.19
2016-05-25T04:57:47.655Z,74.1
2016-05-25T04:58:47.408Z,74.29
2016-05-25T04:59:50.364Z,74.38
2016-05-25T05:00:47.305Z,74.38
2016-05-25T05:01:47.260Z,73.81
2016-05-25T05:02:47.200Z,73.72
2016-05-25T05:03:47.156Z,73.43
2016-05-25T05:04:47.112Z,73.62
2016-05-25T05:05:47.083Z,73.62
2016-05-25T05:06:47.007Z,73.43
2016-05-25T05:07:46.963Z,73.72
2016-05-25T05:08:46.748Z,73.72
2016-05-25T05:09:46.875Z,73.62
2016-05-25T05:10:49.815Z,73.91
2016-05-25T05:11:46.974Z,73.62
2016-05-25T05:12:49.555Z,73.81
2016-05-25T05:13:46.667Z,73.43
2016-05-25T05:15:09.842Z,73.43
2016-05-25T05:15:46.563Z,73.43
2016-05-25T05:16:46.379Z,73.52
2016-05-25T05:17:52.475Z,73.33
2016-05-25T05:18:49.400Z,73.43
2016-05-25T05:19:49.370Z,73.52
2016-05-25T05:20:49.312Z,73.33
2016-05-25T05:21:46.283Z,73.14
2016-05-25T05:22:49.239Z,73.33
2016-05-25T05:23:49.194Z,73.05
2016-05-25T05:24:49.134Z,72.67
2016-05-25T05:25:46.075Z,72.76
2016-05-25T05:26:46.000Z,72.8
2016-05-25T05:27:45.955Z,72.71
2016-05-25T05:28:51.927Z,72.32
2016-05-25T05:29:49.054Z,72.51
2016-05-25T05:30:48.822Z,72.61
2016-05-25T05:31:48.825Z,72.42
2016-05-25T05:32:45.703Z,72.51
2016-05-25T05:33:45.658Z,72.61
2016-05-25T05:34:48.614Z,72.42
2016-05-25T05:35:45.555Z,72.71
2016-05-25T05:36:45.511Z,72.42
2016-05-25T05:37:45.544Z,72.23
2016-05-25T05:38:45.407Z,72.32
2016-05-25T05:39:45.362Z,72.23
2016-05-25T05:40:54.349Z,72.51
2016-05-25T05:41:48.274Z,72.42
2016-05-25T05:42:45.214Z,72.8
2016-05-25T05:43:48.029Z,72.8
2016-05-25T05:44:44.953Z,73.14
2016-05-25T05:45:48.066Z,73.24
2016-05-25T05:46:45.756Z,72.96
2016-05-25T05:47:47.978Z,73.47
2016-05-25T05:48:44.918Z,73.43
2016-05-25T05:49:47.858Z,73.37
2016-05-25T05:50:44.845Z,73.37
2016-05-25T05:51:44.770Z,73.62
2016-05-25T05:52:44.787Z,73.28
2016-05-25T05:53:44.665Z,73.56
2016-05-25T05:54:44.636Z,73.47
2016-05-25T05:55:47.578Z,73.56
2016-05-25T05:56:47.439Z,73.66
2016-05-25T05:57:44.676Z,73.43
2016-05-25T05:58:44.554Z,73.81
2016-05-25T05:59:44.400Z,73.91
2016-05-25T06:00:44.309Z,73.91
2016-05-25T06:01:47.265Z,73.62
2016-05-25T06:02:47.064Z,73.62
2016-05-25T06:03:44.161Z,73.91
2016-05-25T06:04:47.132Z,73.91
2016-05-25T06:05:47.072Z,73.62
2016-05-25T06:06:47.122Z,73.72
2016-05-25T06:07:43.968Z,74.38
2016-05-25T06:08:43.910Z,74.29
2016-05-25T06:09:46.912Z,74.57
2016-05-25T06:10:43.821Z,74.77
2016-05-25T06:11:46.761Z,74.86
2016-05-25T06:12:43.716Z,74.67
2016-05-25T06:13:43.657Z,74.1
2016-05-25T06:14:43.612Z,73.52
2016-05-25T06:15:43.568Z,73.91
2016-05-25T06:16:43.509Z,73.75
2016-05-25T06:17:43.464Z,73.28
2016-05-25T06:18:43.437Z,73.47
2016-05-25T06:19:43.392Z,73.37
2016-05-25T06:20:46.316Z,73.85
2016-05-25T06:21:43.476Z,73.94
2016-05-25T06:22:47.868Z,73.75
2016-05-25T06:23:48.262Z,73.72
2016-05-25T06:24:43.187Z,73.56
2016-05-25T06:25:43.189Z,73.28
2016-05-25T06:26:43.176Z,72.89
2016-05-25T06:27:43.053Z,72.32
2016-05-25T06:28:49.041Z,72.17
2016-05-25T06:29:43.074Z,71.69
2016-05-25T06:30:43.202Z,71.31
2016-05-25T06:31:43.267Z,71.21
2016-05-25T06:32:42.927Z,70.36
2016-05-25T06:33:45.602Z,70.32
2016-05-25T06:34:42.620Z,71.37
2016-05-25T06:35:42.575Z,70.98
2016-05-25T06:36:42.516Z,70.32
2016-05-25T06:37:45.472Z,70.16
2016-05-25T06:38:45.411Z,69.68
2016-05-25T06:39:45.227Z,69.87
2016-05-25T06:40:42.354Z,68.92
2016-05-25T06:41:42.280Z,69.11
2016-05-25T06:42:42.079Z,69.21
2016-05-25T06:43:43.629Z,68.73
2016-05-25T06:44:42.131Z,68.54
2016-05-25T06:45:42.102Z,68.73
2016-05-25T06:46:41.870Z,68.82
2016-05-25T06:47:42.998Z,68.82
2016-05-25T06:48:41.923Z,68.54
2016-05-25T06:49:44.894Z,68.63
2016-05-25T06:50:41.944Z,68.06
2016-05-25T06:51:44.634Z,68.19
2016-05-25T06:52:44.745Z,67.87
2016-05-25T06:53:41.890Z,67.87
2016-05-25T06:54:44.626Z,67.87
2016-05-25T06:55:44.582Z,67.97
2016-05-25T06:56:44.554Z,67.97
2016-05-25T06:57:41.478Z,68.16
2016-05-25T06:58:43.122Z,67.97
2016-05-25T06:59:44.624Z,67.81
2016-05-25T07:00:41.549Z,67.49
2016-05-25T07:01:50.333Z,67.62
2016-05-25T07:02:41.445Z,67.14
2016-05-25T07:03:41.400Z,67.05
2016-05-25T07:04:41.356Z,66.38
2016-05-25T07:05:41.094Z,66.47
2016-05-25T07:06:44.065Z,66.09
2016-05-25T07:07:46.989Z,65.42
2016-05-25T07:08:44.008Z,65.07
2016-05-25T07:09:43.901Z,64.94
2016-05-25T07:10:40.888Z,64.65
2016-05-25T07:11:43.829Z,64.56
2016-05-25T07:12:40.768Z,64.47
2016-05-25T07:13:46.740Z,64.22
2016-05-25T07:14:40.649Z,64.09
2016-05-25T07:15:40.823Z,64.09
2016-05-25T07:16:40.685Z,63.8
2016-05-25T07:17:43.532Z,63.8
2016-05-25T07:18:43.457Z,63.13
2016-05-25T07:19:43.443Z,63.13
2016-05-25T07:20:43.368Z,63.42
2016-05-25T07:21:40.512Z,63.51
2016-05-25T07:22:40.468Z,63.32
2016-05-25T07:23:43.236Z,63.32
2016-05-25T07:24:43.176Z,63.42
2016-05-25T07:25:40.334Z,63.32
2016-05-25T07:26:39.947Z,63.13
2016-05-25T07:27:40.231Z,63.13
2016-05-25T07:28:40.077Z,62.68
2016-05-25T07:29:39.955Z,62.18
2016-05-25T07:30:43.161Z,61.72
2016-05-25T07:31:39.773Z,61.69
2016-05-25T07:32:39.791Z,62.18
2016-05-25T07:33:39.575Z,62.18
2016-05-25T07:34:39.734Z,61.98
2016-05-25T07:35:39.658Z,61.51
2016-05-25T07:36:39.615Z,60.77
2016-05-25T07:37:39.711Z,60.87
2016-05-25T07:38:42.698Z,60.77
2016-05-25T07:39:39.466Z,60.39
2016-05-25T07:40:39.391Z,60.49
2016-05-25T07:41:39.362Z,60.23
2016-05-25T07:42:39.318Z,60.2
2016-05-25T07:43:39.258Z,60.04
2016-05-25T07:44:45.433Z,59.37
2016-05-25T07:45:39.154Z,59.37
2016-05-25T07:46:39.141Z,58.8
2016-05-25T07:47:39.051Z,58.89
2016-05-25T07:48:42.006Z,58.98
2016-05-25T07:49:38.978Z,59.08
2016-05-25T07:50:38.918Z,59.18
2016-05-25T07:51:41.874Z,59.18
2016-05-25T07:52:38.829Z,58.98
2016-05-25T07:53:47.770Z,58.7
2016-05-25T07:54:38.788Z,58.8
2016-05-25T07:55:39.198Z,58.8
2016-05-25T07:56:44.496Z,58.61
2016-05-25T07:57:38.592Z,58.03
2016-05-25T07:58:40.456Z,58.03
2016-05-25T07:59:38.333Z,58.03
2016-05-25T08:00:38.428Z,58.12
2016-05-25T08:01:41.728Z,58.12
2016-05-25T08:02:38.356Z,57.75
2016-05-25T08:03:41.609Z,57.84
2016-05-25T08:04:38.440Z,58.12
2016-05-25T08:05:38.192Z,58.8
2016-05-25T08:06:37.977Z,58.7
2016-05-25T08:07:38.105Z,58.58
2016-05-25T08:08:38.044Z,58.8
2016-05-25T08:09:38.031Z,58.61
2016-05-25T08:10:40.988Z,58.03
2016-05-25T08:11:37.912Z,58.22
2016-05-25T08:12:40.914Z,58.03
2016-05-25T08:13:37.885Z,58.12
2016-05-25T08:14:37.748Z,58.22
2016-05-25T08:15:41.157Z,58.12
2016-05-25T08:16:40.675Z,58.32
2016-05-25T08:17:37.600Z,58.12
2016-05-25T08:18:37.555Z,58.8
2016-05-25T08:19:37.371Z,58.86
2016-05-25T08:20:37.468Z,58.58
2016-05-25T08:21:37.423Z,58.7
2016-05-25T08:22:40.379Z,58.67
2016-05-25T08:23:38.101Z,58.48
2016-05-25T08:24:37.275Z,58.1
2016-05-25T08:25:37.231Z,57.9
2016-05-25T08:26:40.420Z,57.81
2016-05-25T08:27:36.986Z,57.62
2016-05-25T08:28:39.957Z,57.62
2016-05-25T08:29:37.023Z,56.79
2016-05-25T08:30:49.056Z,56.85
2016-05-25T08:31:36.981Z,56.98
2016-05-25T08:32:39.890Z,56.95
2016-05-25T08:33:40.565Z,56.6
2016-05-25T08:34:36.802Z,55.83
2016-05-25T08:35:36.758Z,55.83
2016-05-25T08:36:39.557Z,56.02
2016-05-25T08:37:42.514Z,55.83
2016-05-25T08:38:42.609Z,55.64
2016-05-25T08:39:39.550Z,55.26
2016-05-25T08:40:36.505Z,55.45
2016-05-25T08:41:36.649Z,55.54
2016-05-25T08:42:39.402Z,55.35
2016-05-25T08:43:36.435Z,55.26
2016-05-25T08:44:36.547Z,55.54
2016-05-25T08:45:36.378Z,55.16
2016-05-25T08:46:36.240Z,55.35
2016-05-25T08:47:36.165Z,55
2016-05-25T08:48:36.527Z,54.8
2016-05-25T08:49:36.076Z,54.9
2016-05-25T08:50:39.016Z,54.9
2016-05-25T08:51:35.973Z,54.9
2016-05-25T08:52:35.772Z,54.8
2016-05-25T08:53:35.899Z,54.8
2016-05-25T08:54:35.668Z,55
2016-05-25T08:55:38.780Z,54.71
2016-05-25T08:56:41.736Z,54.52
2016-05-25T08:57:38.895Z,54.14
2016-05-25T08:58:38.835Z,54.14
2016-05-25T08:59:35.588Z,54.04
2016-05-25T09:00:35.559Z,54.23
2016-05-25T09:01:36.000Z,53.94
2016-05-25T09:02:35.737Z,54.14
2016-05-25T09:03:35.411Z,53.75
2016-05-25T09:04:38.366Z,53.66
2016-05-25T09:05:38.323Z,53.28
2016-05-25T09:06:35.263Z,53.37
2016-05-25T09:07:35.219Z,53.28
2016-05-25T09:08:35.159Z,53.85
2016-05-25T09:09:38.114Z,53.47
2016-05-25T09:10:38.070Z,53.37
2016-05-25T09:11:35.011Z,53.66
2016-05-25T09:12:35.451Z,53.47
2016-05-25T09:13:34.922Z,53.49
2016-05-25T09:14:34.878Z,53.47
2016-05-25T09:15:34.834Z,52.83
2016-05-25T09:16:37.916Z,52.89
2016-05-25T09:17:37.604Z,53.08
2016-05-25T09:18:34.671Z,53.4
2016-05-25T09:19:40.688Z,53.08
2016-05-25T09:20:34.582Z,53.4
2016-05-25T09:21:34.538Z,53.2
2016-05-25T09:22:34.494Z,52.83
2016-05-25T09:23:37.527Z,52.92
2016-05-25T09:24:34.421Z,52.63
2016-05-25T09:25:34.360Z,52.73
2016-05-25T09:26:34.301Z,52.44
2016-05-25T09:27:34.272Z,52.15
2016-05-25T09:28:34.243Z,52.06
2016-05-25T09:29:34.168Z,51.68
2016-05-25T09:30:37.109Z,51.97
2016-05-25T09:31:34.081Z,51.29
2016-05-25T09:32:34.067Z,51.2
2016-05-25T09:33:33.976Z,51.39
2016-05-25T09:34:34.010Z,51.01
2016-05-25T09:35:34.262Z,51.1
2016-05-25T09:36:33.890Z,51.03
2016-05-25T09:37:33.783Z,50.36
2016-05-25T09:38:33.928Z,50.36
2016-05-25T09:39:33.680Z,50.07
2016-05-25T09:40:33.635Z,50.17
2016-05-25T09:41:33.576Z,50.46
2016-05-25T09:42:33.548Z,50.72
2016-05-25T09:43:33.519Z,50.91
2016-05-25T09:44:33.474Z,51.48
2016-05-25T09:45:33.414Z,51.77
2016-05-25T09:46:33.339Z,52.15
2016-05-25T09:47:39.374Z,51.87
2016-05-25T09:48:33.251Z,51.97
2016-05-25T09:49:33.207Z,52.06
2016-05-25T09:50:33.350Z,51.97
2016-05-25T09:51:33.305Z,52.06
2016-05-25T09:52:33.074Z,52.15
2016-05-25T09:53:33.436Z,52.15
2016-05-25T09:54:32.970Z,52.44
2016-05-25T09:55:32.926Z,52.32
2016-05-25T09:56:32.865Z,52.15
2016-05-25T09:57:35.838Z,52.06
2016-05-25T09:58:32.778Z,51.87
2016-05-25T09:59:32.733Z,51.68
2016-05-25T10:00:32.720Z,51.87
2016-05-25T10:01:33.192Z,51.39
2016-05-25T10:02:35.617Z,51.13
2016-05-25T10:03:32.556Z,51.03
2016-05-25T10:04:32.356Z,51.13
2016-05-25T10:05:35.453Z,51.03
2016-05-25T10:06:32.439Z,50.74
2016-05-25T10:07:32.364Z,51.03
2016-05-25T10:08:35.523Z,51.22
2016-05-25T10:09:32.261Z,50.65
2016-05-25T10:10:32.263Z,50.36
2016-05-25T10:11:32.016Z,50.26
2016-05-25T10:12:32.112Z,49.98
2016-05-25T10:13:33.833Z,49.79
2016-05-25T10:14:32.024Z,49.62
2016-05-25T10:15:31.964Z,49.24
2016-05-25T10:16:32.123Z,49.05
2016-05-25T10:17:31.892Z,48.95
2016-05-25T10:18:31.863Z,49.24
2016-05-25T10:19:34.787Z,47.89
2016-05-25T10:20:31.758Z,47.51
2016-05-25T10:21:31.699Z,47.42
2016-05-25T10:22:34.655Z,47.51
2016-05-25T10:23:31.595Z,47.51
2016-05-25T10:24:31.552Z,47.89
2016-05-25T10:25:31.554Z,47.71
2016-05-25T10:26:31.478Z,47.99
2016-05-25T10:27:31.513Z,47.42
2016-05-25T10:28:31.359Z,47.51
2016-05-25T10:29:31.329Z,47.51
2016-05-25T10:30:31.473Z,47.51
2016-05-25T10:31:31.226Z,47.13
2016-05-25T10:32:34.135Z,46.67
2016-05-25T10:33:34.356Z,46.67
2016-05-25T10:34:31.093Z,46.39
2016-05-25T10:35:34.065Z,46.48
2016-05-25T10:36:31.005Z,46.77
2016-05-25T10:37:30.961Z,46.29
2016-05-25T10:38:30.964Z,46.77
2016-05-25T10:39:30.856Z,47.06
2016-05-25T10:40:33.703Z,47.06
2016-05-25T10:41:30.753Z,47.42
2016-05-25T10:42:33.725Z,47.42
2016-05-25T10:43:30.680Z,47.32
2016-05-25T10:44:30.729Z,46.65
2016-05-25T10:45:30.810Z,46.86
2016-05-25T10:46:30.641Z,46.29
2016-05-25T10:47:30.503Z,45.62
2016-05-25T10:48:30.444Z,45.64
2016-05-25T10:49:30.383Z,45.16
2016-05-25T10:50:33.793Z,44.4
2016-05-25T10:51:30.311Z,44.01
2016-05-25T10:52:30.252Z,43.55
2016-05-25T10:53:30.426Z,43.73
2016-05-25T10:54:30.163Z,44.2
2016-05-25T10:55:32.994Z,44.59
2016-05-25T10:56:30.262Z,44.59
2016-05-25T10:57:33.015Z,44.59
2016-05-25T10:58:30.001Z,44.11
2016-05-25T10:59:33.129Z,44.2
2016-05-25T11:00:29.866Z,44.03
2016-05-25T11:01:29.837Z,43.94
2016-05-25T11:02:30.201Z,44.01
2016-05-25T11:03:32.812Z,44.3
2016-05-25T11:04:29.690Z,44.4
2016-05-25T11:05:32.646Z,44.68
2016-05-25T11:06:32.789Z,44.78
2016-05-25T11:07:29.557Z,45.14
2016-05-25T11:08:29.575Z,45.52
2016-05-25T11:09:29.453Z,45.33
2016-05-25T11:10:29.425Z,45.52
2016-05-25T11:11:29.365Z,45.04
2016-05-25T11:12:29.320Z,45.23
2016-05-25T11:13:29.291Z,44.68
2016-05-25T11:14:29.060Z,44.3
2016-05-25T11:15:29.281Z,44.4
2016-05-25T11:16:28.972Z,44.2
2016-05-25T11:17:29.537Z,44.49
2016-05-25T11:18:29.072Z,44.01
2016-05-25T11:19:29.074Z,43.91
2016-05-25T11:20:28.966Z,43.27
2016-05-25T11:21:28.783Z,43.36
2016-05-25T11:22:28.863Z,43.65
2016-05-25T11:23:28.803Z,43.65
2016-05-25T11:24:28.930Z,44.11
2016-05-25T11:25:28.716Z,43.82
2016-05-25T11:26:28.513Z,43.27
2016-05-25T11:27:28.642Z,43.36
2016-05-25T11:28:28.610Z,43.07
2016-05-25T11:29:28.535Z,42.98
2016-05-25T11:30:28.491Z,42.88
2016-05-25T11:31:28.478Z,42.69
2016-05-25T11:32:28.762Z,42.4
2016-05-25T11:33:28.406Z,42.21
2016-05-25T11:34:28.315Z,42.11
2016-05-25T11:35:28.115Z,42.5
2016-05-25T11:36:28.273Z,42.21
2016-05-25T11:37:28.197Z,42.21
2016-05-25T11:38:27.982Z,42.43
2016-05-25T11:39:28.468Z,41.66
2016-05-25T11:40:28.112Z,41.46
2016-05-25T11:41:31.008Z,41.29
2016-05-25T11:42:31.167Z,41.2
2016-05-25T11:43:28.104Z,41.27
2016-05-25T11:44:28.278Z,41.27
2016-05-25T11:45:27.813Z,41.46
2016-05-25T11:46:27.769Z,41.46
2016-05-25T11:47:31.462Z,41.85
2016-05-25T11:48:31.074Z,41.27
2016-05-25T11:49:30.733Z,41.27
2016-05-25T11:50:30.829Z,41.27
2016-05-25T11:51:27.532Z,41.66
2016-05-25T11:52:30.491Z,41.75
2016-05-25T11:53:27.460Z,41.66
2016-05-25T11:54:27.383Z,41.94
2016-05-25T11:55:27.558Z,42.02
2016-05-25T11:56:27.311Z,42.5
2016-05-25T11:57:27.470Z,42.6
2016-05-25T11:58:27.223Z,42.3
2016-05-25T11:59:27.038Z,42.4
2016-05-25T12:00:27.697Z,41.94
2016-05-25T12:01:30.093Z,41.56
2016-05-25T12:02:27.062Z,41.66
2016-05-25T12:03:30.255Z,41.46
2016-05-25T12:04:32.804Z,41.56
2016-05-25T12:05:26.929Z,41.17
2016-05-25T12:06:30.059Z,41.37
2016-05-25T12:07:32.828Z,41.37
2016-05-25T12:08:26.765Z,41.27
2016-05-25T12:09:26.706Z,41.27
2016-05-25T12:10:26.865Z,41.27
2016-05-25T12:11:26.648Z,41.46
2016-05-25T12:12:26.760Z,40.91
2016-05-25T12:13:26.404Z,41.1
2016-05-25T12:14:26.531Z,41.49
2016-05-25T12:15:26.534Z,41.29
2016-05-25T12:16:26.474Z,41.2
2016-05-25T12:17:26.242Z,41.29
2016-05-25T12:18:26.823Z,41.39
2016-05-25T12:19:26.451Z,41.29
2016-05-25T12:20:26.329Z,40.72
2016-05-25T12:21:26.035Z,41
2016-05-25T12:22:25.975Z,40.91
2016-05-25T12:23:26.306Z,40.81
2016-05-25T12:24:29.058Z,41.1
2016-05-25T12:25:25.999Z,40.43
2016-05-25T12:26:26.016Z,40.33
2016-05-25T12:27:26.254Z,40.52
2016-05-25T12:28:25.710Z,41.1
2016-05-25T12:29:28.838Z,41.1
2016-05-25T12:30:25.777Z,41.2
2016-05-25T12:31:28.733Z,40.52
2016-05-25T12:32:25.532Z,40.33
2016-05-25T12:33:25.988Z,40.05
2016-05-25T12:34:25.616Z,40.16
2016-05-25T12:35:28.619Z,39.87
2016-05-25T12:36:25.512Z,40.06
2016-05-25T12:37:28.468Z,40.06
2016-05-25T12:38:25.424Z,39.78
2016-05-25T12:39:28.380Z,39.58
2016-05-25T12:40:25.336Z,39.29
2016-05-25T12:41:25.292Z,39.2
2016-05-25T12:42:25.247Z,39.29
2016-05-25T12:43:25.203Z,39.03
2016-05-25T12:44:25.143Z,39.29
2016-05-25T12:45:25.115Z,39.2
2016-05-25T12:46:25.148Z,39.68
2016-05-25T12:47:25.230Z,39.85
2016-05-25T12:48:25.186Z,40.33
2016-05-25T12:49:28.032Z,39.85
2016-05-25T12:50:24.864Z,40.14
2016-05-25T12:51:24.849Z,40.23
2016-05-25T12:52:25.399Z,40.14
2016-05-25T12:53:24.746Z,39.39
2016-05-25T12:54:30.717Z,39.2